createdAt,value
2023-05-05T00:00:20.103Z,23.91
2023-05-05T00:01:20.125Z,23.92
2023-05-05T00:02:20.206Z,23.92
2023-05-05T00:03:20.236Z,23.91
2023-05-05T00:04:20.328Z,23.91
2023-05-05T00:05:20.324Z,23.91
2023-05-05T00:06:20.339Z,23.91
2023-05-05T00:07:20.378Z,23.90
2023-05-05T00:08:20.416Z,23.90
2023-05-05T00:09:20.498Z,23.91
2023-05-05T00:10:20.500Z,23.91
2023-05-05T00:11:20.540Z,23.90
2023-05-05T00:12:21.351Z,23.90
2023-05-05T00:13:20.614Z,23.90
2023-05-05T00:14:20.664Z,23.89
2023-05-05T00:15:20.677Z,23.89
2023-05-05T00:16:20.760Z,23.89
2023-05-05T00:17:20.771Z,23.89
2023-05-05T00:18:20.846Z,23.89
2023-05-05T00:19:20.887Z,23.89
2023-05-05T00:20:20.909Z,23.88
2023-05-05T00:21:20.972Z,23.89
2023-05-05T00:22:20.995Z,23.89
2023-05-05T00:23:21.066Z,23.88
2023-05-05T00:24:21.135Z,23.89
2023-05-05T00:25:21.140Z,23.88
2023-05-05T00:26:21.193Z,23.89
2023-05-05T00:27:21.254Z,23.88
2023-05-05T00:28:21.297Z,23.88
2023-05-05T00:29:21.352Z,23.88
2023-05-05T00:30:21.375Z,23.87
2023-05-05T00:31:21.490Z,23.87
2023-05-05T00:32:21.511Z,23.87
2023-05-05T00:33:21.541Z,23.88
2023-05-05T00:34:21.580Z,23.87
2023-05-05T00:35:21.624Z,23.87
2023-05-05T00:36:21.678Z,23.87
2023-05-05T00:37:21.718Z,23.88
2023-05-05T00:38:21.750Z,23.87
2023-05-05T00:39:21.828Z,23.87
2023-05-05T00:40:21.853Z,23.87
2023-05-05T00:41:21.924Z,23.86
2023-05-05T00:42:21.973Z,23.87
2023-05-05T00:43:22.010Z,23.86
2023-05-05T00:44:22.056Z,23.87
2023-05-05T00:45:22.088Z,23.86
2023-05-05T00:46:22.219Z,23.86
2023-05-05T00:47:22.172Z,23.86
2023-05-05T00:48:22.219Z,23.87
2023-05-05T00:49:22.310Z,23.86
2023-05-05T00:50:22.324Z,23.86
2023-05-05T00:51:22.364Z,23.86
2023-05-05T00:52:22.407Z,23.86
2023-05-05T00:53:22.445Z,23.86
2023-05-05T00:54:22.488Z,23.86
2023-05-05T00:55:22.531Z,23.85
2023-05-05T00:56:22.599Z,23.86
2023-05-05T00:57:22.635Z,23.85
2023-05-05T00:58:22.672Z,23.85
2023-05-05T00:59:22.726Z,23.85
2023-05-05T01:00:22.764Z,23.85
2023-05-05T01:01:22.854Z,23.84
2023-05-05T01:02:22.872Z,23.84
2023-05-05T01:03:22.966Z,23.85
2023-05-05T01:04:22.918Z,23.85
2023-05-05T01:05:22.995Z,23.85
2023-05-05T01:06:23.052Z,23.85
2023-05-05T01:07:23.072Z,23.84
2023-05-05T01:08:23.871Z,23.84
2023-05-05T01:09:23.169Z,23.84
2023-05-05T01:10:23.520Z,23.85
2023-05-05T01:11:23.258Z,23.84
2023-05-05T01:12:23.296Z,23.84
2023-05-05T01:13:23.397Z,23.84
2023-05-05T01:14:23.485Z,23.84
2023-05-05T01:15:23.461Z,23.83
2023-05-05T01:16:23.612Z,23.84
2023-05-05T01:17:23.635Z,23.84
2023-05-05T01:18:23.617Z,23.83
2023-05-05T01:19:23.670Z,23.83
2023-05-05T01:20:23.751Z,23.83
2023-05-05T01:21:23.782Z,23.83
2023-05-05T01:22:23.771Z,23.82
2023-05-05T01:23:23.852Z,23.82
2023-05-05T01:24:23.889Z,23.82
2023-05-05T01:25:23.954Z,23.82
2023-05-05T01:26:23.979Z,23.82
2023-05-05T01:27:24.063Z,23.83
2023-05-05T01:28:24.119Z,23.82
2023-05-05T01:29:24.144Z,23.82
2023-05-05T01:30:24.187Z,23.82
2023-05-05T01:31:24.251Z,23.83
2023-05-05T01:32:24.294Z,23.82
2023-05-05T01:33:24.338Z,23.81
2023-05-05T01:34:24.379Z,23.81
2023-05-05T01:35:24.432Z,23.82
2023-05-05T01:36:24.478Z,23.81
2023-05-05T01:37:24.537Z,23.81
2023-05-05T01:38:24.579Z,23.81
2023-05-05T01:39:24.621Z,23.81
2023-05-05T01:40:24.732Z,23.80
2023-05-05T01:41:24.750Z,23.81
2023-05-05T01:42:24.782Z,23.80
2023-05-05T01:43:24.845Z,23.81
2023-05-05T01:44:24.907Z,23.80
2023-05-05T01:45:24.933Z,23.80
2023-05-05T01:46:25.010Z,23.80
2023-05-05T01:47:25.170Z,23.80
2023-05-05T01:48:25.121Z,23.79
2023-05-05T01:49:25.181Z,23.80
2023-05-05T01:50:25.217Z,23.80
2023-05-05T01:51:25.261Z,23.80
2023-05-05T01:52:25.327Z,23.79
2023-05-05T01:53:25.371Z,23.80
2023-05-05T01:54:25.415Z,23.79
2023-05-05T01:55:25.472Z,23.79
2023-05-05T01:56:25.530Z,23.79
2023-05-05T01:57:25.540Z,23.79
2023-05-05T01:58:25.609Z,23.79
2023-05-05T01:59:25.630Z,23.79
2023-05-05T02:00:25.677Z,23.79
2023-05-05T02:01:25.777Z,23.78
2023-05-05T02:02:25.870Z,23.78
2023-05-05T02:03:25.898Z,23.79
2023-05-05T02:04:25.887Z,23.78
2023-05-05T02:05:25.950Z,23.78
2023-05-05T02:06:26.020Z,23.78
2023-05-05T02:07:26.061Z,23.78
2023-05-05T02:08:26.893Z,23.77
2023-05-05T02:09:26.150Z,23.77
2023-05-05T02:10:26.249Z,23.77
2023-05-05T02:11:26.312Z,23.77
2023-05-05T02:12:26.309Z,23.77
2023-05-05T02:13:26.413Z,23.77
2023-05-05T02:14:26.483Z,23.77
2023-05-05T02:15:26.500Z,23.76
2023-05-05T02:16:26.608Z,23.77
2023-05-05T02:17:26.646Z,23.76
2023-05-05T02:18:26.710Z,23.77
2023-05-05T02:19:27.393Z,23.76
2023-05-05T02:20:26.778Z,23.77
2023-05-05T02:21:26.880Z,23.76
2023-05-05T02:22:26.937Z,23.76
2023-05-05T02:23:27.002Z,23.76
2023-05-05T02:24:27.016Z,23.76
2023-05-05T02:25:27.081Z,23.76
2023-05-05T02:26:27.144Z,23.76
2023-05-05T02:27:27.209Z,23.76
2023-05-05T02:28:27.262Z,23.76
2023-05-05T02:29:27.312Z,23.75
2023-05-05T02:30:27.379Z,23.75
2023-05-05T02:31:27.518Z,23.76
2023-05-05T02:32:27.468Z,23.76
2023-05-05T02:33:27.526Z,23.75
2023-05-05T02:34:27.587Z,23.75
2023-05-05T02:35:27.636Z,23.74
2023-05-05T02:36:27.722Z,23.75
2023-05-05T02:37:27.768Z,23.74
2023-05-05T02:38:27.818Z,23.74
2023-05-05T02:39:27.868Z,23.74
2023-05-05T02:40:27.901Z,23.74
2023-05-05T02:41:27.982Z,23.74
2023-05-05T02:43:28.104Z,23.74
2023-05-05T02:44:28.192Z,23.74
2023-05-05T02:45:28.218Z,23.73
2023-05-05T02:46:28.365Z,23.73
2023-05-05T02:47:28.383Z,23.73
2023-05-05T02:48:28.415Z,23.73
2023-05-05T02:49:28.454Z,23.73
2023-05-05T02:50:28.501Z,23.73
2023-05-05T02:51:28.595Z,23.73
2023-05-05T02:52:28.633Z,23.72
2023-05-05T02:53:28.689Z,23.72
2023-05-05T02:54:28.734Z,23.72
2023-05-05T02:55:28.786Z,23.72
2023-05-05T02:56:28.855Z,23.72
2023-05-05T02:57:28.896Z,23.72
2023-05-05T02:58:28.970Z,23.73
2023-05-05T02:59:29.031Z,23.72
2023-05-05T03:00:29.109Z,23.71
2023-05-05T03:01:29.205Z,23.72
2023-05-05T03:02:29.303Z,23.72
2023-05-05T03:03:29.404Z,23.72
2023-05-05T03:04:29.382Z,23.71
2023-05-05T03:05:29.428Z,23.72
2023-05-05T03:06:29.470Z,23.71
2023-05-05T03:07:29.494Z,23.71
2023-05-05T03:08:29.614Z,23.72
2023-05-05T03:09:29.660Z,23.71
2023-05-05T03:10:29.701Z,23.70
2023-05-05T03:11:29.764Z,23.71
2023-05-05T03:12:29.858Z,23.71
2023-05-05T03:13:29.870Z,23.70
2023-05-05T03:14:32.115Z,23.70
2023-05-05T03:15:29.966Z,23.70
2023-05-05T03:16:29.970Z,23.71
2023-05-05T03:17:29.956Z,23.71
2023-05-05T03:18:29.913Z,23.70
2023-05-05T03:19:29.913Z,23.70
2023-05-05T03:20:29.924Z,23.70
2023-05-05T03:21:29.933Z,23.69
2023-05-05T03:22:29.901Z,23.70
2023-05-05T03:23:29.904Z,23.70
2023-05-05T03:24:29.891Z,23.70
2023-05-05T03:25:29.860Z,23.69
2023-05-05T03:26:29.872Z,23.69
2023-05-05T03:27:29.872Z,23.69
2023-05-05T03:28:29.819Z,23.69
2023-05-05T03:29:29.851Z,23.69
2023-05-05T03:30:29.795Z,23.68
2023-05-05T03:31:29.822Z,23.69
2023-05-05T03:32:29.866Z,23.69
2023-05-05T03:33:29.818Z,23.68
2023-05-05T03:34:29.811Z,23.69
2023-05-05T03:35:29.774Z,23.69
2023-05-05T03:36:29.811Z,23.68
2023-05-05T03:37:29.751Z,23.68
2023-05-05T03:38:29.779Z,23.68
2023-05-05T03:39:29.746Z,23.68
2023-05-05T03:40:43.015Z,23.68
2023-05-05T03:41:30.788Z,23.67
2023-05-05T03:42:29.731Z,23.66
2023-05-05T03:43:29.761Z,23.67
2023-05-05T03:44:29.712Z,23.67
2023-05-05T03:45:29.765Z,23.67
2023-05-05T03:46:29.728Z,23.67
2023-05-05T03:47:29.708Z,23.67
2023-05-05T03:48:29.713Z,23.67
2023-05-05T03:49:29.804Z,23.67
2023-05-05T03:50:29.831Z,23.66
2023-05-05T03:51:29.934Z,23.67
2023-05-05T03:52:29.937Z,23.66
2023-05-05T03:53:30.022Z,23.66
2023-05-05T03:54:30.096Z,23.66
2023-05-05T03:55:30.170Z,23.66
2023-05-05T03:56:30.257Z,23.66
2023-05-05T03:57:30.279Z,23.66
2023-05-05T03:58:30.324Z,23.66
2023-05-05T03:59:30.404Z,23.66
2023-05-05T04:00:30.495Z,23.66
2023-05-05T04:01:30.526Z,23.66
2023-05-05T04:02:30.628Z,23.66
2023-05-05T04:03:30.820Z,23.66
2023-05-05T04:04:30.737Z,23.65
2023-05-05T04:05:30.788Z,23.65
2023-05-05T04:06:30.877Z,23.65
2023-05-05T04:07:30.888Z,23.66
2023-05-05T04:08:30.983Z,23.66
2023-05-05T04:09:31.043Z,23.65
2023-05-05T04:10:31.073Z,23.65
2023-05-05T04:11:31.147Z,23.66
2023-05-05T04:12:31.193Z,23.66
2023-05-05T04:13:31.218Z,23.66
2023-05-05T04:14:31.250Z,23.65
2023-05-05T04:15:31.317Z,23.65
2023-05-05T04:16:31.394Z,23.65
2023-05-05T04:17:31.462Z,23.65
2023-05-05T04:18:31.520Z,23.66
2023-05-05T04:19:31.526Z,23.65
2023-05-05T04:20:31.594Z,23.65
2023-05-05T04:21:31.663Z,23.65
2023-05-05T04:22:31.683Z,23.66
2023-05-05T04:23:31.739Z,23.65
2023-05-05T04:24:31.809Z,23.65
2023-05-05T04:25:31.878Z,23.65
2023-05-05T04:26:32.500Z,23.65
2023-05-05T04:27:31.991Z,23.65
2023-05-05T04:28:32.030Z,23.65
2023-05-05T04:29:32.074Z,23.65
2023-05-05T04:30:32.089Z,23.65
2023-05-05T04:31:32.227Z,23.65
2023-05-05T04:32:32.254Z,23.65
2023-05-05T04:33:32.253Z,23.65
2023-05-05T04:34:32.337Z,23.65
2023-05-05T04:35:32.377Z,23.64
2023-05-05T04:36:32.488Z,23.65
2023-05-05T04:37:32.933Z,23.64
2023-05-05T04:38:32.784Z,23.64
2023-05-05T04:39:32.615Z,23.64
2023-05-05T04:40:32.694Z,23.64
2023-05-05T04:41:32.767Z,23.64
2023-05-05T04:42:32.811Z,23.64
2023-05-05T04:43:32.851Z,23.64
2023-05-05T04:44:32.893Z,23.64
2023-05-05T04:45:32.982Z,23.64
2023-05-05T04:46:33.106Z,23.64
2023-05-05T04:47:33.084Z,23.64
2023-05-05T04:48:33.126Z,23.64
2023-05-05T04:49:33.235Z,23.64
2023-05-05T04:50:33.239Z,23.64
2023-05-05T04:51:33.246Z,23.63
2023-05-05T04:52:33.307Z,23.64
2023-05-05T04:53:33.375Z,23.64
2023-05-05T04:54:33.419Z,23.64
2023-05-05T04:55:33.455Z,23.65
2023-05-05T04:56:33.579Z,23.64
2023-05-05T04:57:34.467Z,23.65
2023-05-05T04:58:33.661Z,23.64
2023-05-05T04:59:33.723Z,23.64
2023-05-05T05:00:33.803Z,23.65
2023-05-05T05:01:35.717Z,23.64
2023-05-05T05:02:33.887Z,23.64
2023-05-05T05:03:33.968Z,23.64
2023-05-05T05:04:33.833Z,23.64
2023-05-05T05:05:33.813Z,23.64
2023-05-05T05:06:33.804Z,23.64
2023-05-05T05:07:33.817Z,23.64
2023-05-05T05:08:33.829Z,23.64
2023-05-05T05:09:33.800Z,23.63
2023-05-05T05:10:33.783Z,23.64
2023-05-05T05:11:33.776Z,23.64
2023-05-05T05:12:33.813Z,23.63
2023-05-05T05:13:33.755Z,23.63
2023-05-05T05:14:33.743Z,23.64
2023-05-05T05:15:33.734Z,23.64
2023-05-05T05:16:34.027Z,23.63
2023-05-05T05:17:33.774Z,23.64
2023-05-05T05:18:33.716Z,23.64
2023-05-05T05:19:33.726Z,23.64
2023-05-05T05:20:33.748Z,23.64
2023-05-05T05:21:33.710Z,23.64
2023-05-05T05:22:33.693Z,23.64
2023-05-05T05:23:33.726Z,23.64
2023-05-05T05:24:33.673Z,23.64
2023-05-05T05:25:33.690Z,23.63
2023-05-05T05:26:33.685Z,23.63
2023-05-05T05:27:33.684Z,23.64
2023-05-05T05:28:33.654Z,23.64
2023-05-05T05:29:33.668Z,23.65
2023-05-05T05:30:33.638Z,23.64
2023-05-05T05:31:33.685Z,23.65
2023-05-05T05:32:33.676Z,23.65
2023-05-05T05:33:33.670Z,23.65
2023-05-05T05:34:33.649Z,23.65
2023-05-05T05:35:33.658Z,23.66
2023-05-05T05:36:33.688Z,23.65
2023-05-05T05:37:33.696Z,23.65
2023-05-05T05:38:33.706Z,23.66
2023-05-05T05:39:33.788Z,23.68
2023-05-05T05:40:33.867Z,23.69
2023-05-05T05:41:33.910Z,23.71
2023-05-05T05:42:33.952Z,23.73
2023-05-05T05:43:34.036Z,23.76
2023-05-05T05:44:34.071Z,23.80
2023-05-05T05:45:34.113Z,23.81
2023-05-05T05:46:34.249Z,23.84
2023-05-05T05:47:34.245Z,23.87
2023-05-05T05:48:34.270Z,23.90
2023-05-05T05:49:34.304Z,23.94
2023-05-05T05:50:34.304Z,23.96
2023-05-05T05:51:34.365Z,23.99
2023-05-05T05:52:34.409Z,24.02
2023-05-05T05:53:34.400Z,24.05
2023-05-05T05:54:34.434Z,24.09
2023-05-05T05:55:34.498Z,24.12
2023-05-05T05:56:34.486Z,24.14
2023-05-05T05:57:34.530Z,24.18
2023-05-05T05:58:34.514Z,24.21
2023-05-05T05:59:34.520Z,24.25
2023-05-05T06:00:34.543Z,24.27
2023-05-05T06:01:35.007Z,24.29
2023-05-05T06:02:34.643Z,24.32
2023-05-05T06:03:34.739Z,24.34
2023-05-05T06:04:34.655Z,24.36
2023-05-05T06:05:34.558Z,24.39
2023-05-05T06:06:34.554Z,24.41
2023-05-05T06:07:34.551Z,24.43
2023-05-05T06:08:34.578Z,24.45
2023-05-05T06:09:34.541Z,24.47
2023-05-05T06:10:34.799Z,24.48
2023-05-05T06:11:34.544Z,24.50
2023-05-05T06:12:34.594Z,24.52
2023-05-05T06:13:34.567Z,24.53
2023-05-05T06:14:34.539Z,24.55
2023-05-05T06:15:34.615Z,24.56
2023-05-05T06:16:34.711Z,24.58
2023-05-05T06:17:34.681Z,24.59
2023-05-05T06:18:34.714Z,24.61
2023-05-05T06:19:34.755Z,24.63
2023-05-05T06:20:34.798Z,24.64
2023-05-05T06:21:34.880Z,24.66
2023-05-05T06:22:34.943Z,24.67
2023-05-05T06:23:35.003Z,24.69
2023-05-05T06:24:35.070Z,24.70
2023-05-05T06:25:35.136Z,24.71
2023-05-05T06:26:35.193Z,24.73
2023-05-05T06:27:35.252Z,24.75
2023-05-05T06:28:35.315Z,24.76
2023-05-05T06:29:35.339Z,24.76
2023-05-05T06:30:35.389Z,24.78
2023-05-05T06:31:35.493Z,24.79
2023-05-05T06:32:35.533Z,24.81
2023-05-05T06:33:35.580Z,24.81
2023-05-05T06:34:35.654Z,24.82
2023-05-05T06:35:35.680Z,24.83
2023-05-05T06:36:35.802Z,24.83
2023-05-05T06:37:35.803Z,24.84
2023-05-05T06:38:35.847Z,24.86
2023-05-05T06:39:35.910Z,24.86
2023-05-05T06:40:35.952Z,24.87
2023-05-05T06:41:36.006Z,24.89
2023-05-05T06:42:36.093Z,24.89
2023-05-05T06:43:36.106Z,24.91
2023-05-05T06:44:36.152Z,24.92
2023-05-05T06:45:36.225Z,24.92
2023-05-05T06:46:36.552Z,24.93
2023-05-05T06:47:36.302Z,24.93
2023-05-05T06:48:36.343Z,24.95
2023-05-05T06:49:36.399Z,24.96
2023-05-05T06:50:36.449Z,24.97
2023-05-05T06:51:36.516Z,24.96
2023-05-05T06:52:36.525Z,24.94
2023-05-05T06:53:36.617Z,24.92
2023-05-05T06:54:36.647Z,24.90
2023-05-05T06:55:36.715Z,24.89
2023-05-05T06:56:36.812Z,24.89
2023-05-05T06:57:36.824Z,24.86
2023-05-05T06:58:36.944Z,24.85
2023-05-05T06:59:36.971Z,24.86
2023-05-05T07:00:37.124Z,24.85
2023-05-05T07:01:37.163Z,24.84
2023-05-05T07:02:37.190Z,24.84
2023-05-05T07:03:37.240Z,24.84
2023-05-05T07:04:37.276Z,24.84
2023-05-05T07:05:37.349Z,24.85
2023-05-05T07:06:37.390Z,24.86
2023-05-05T07:07:37.435Z,24.86
2023-05-05T07:08:37.476Z,24.87
2023-05-05T07:09:37.558Z,24.88
2023-05-05T07:10:37.921Z,24.89
2023-05-05T07:11:37.653Z,24.89
2023-05-05T07:12:37.764Z,24.86
2023-05-05T07:13:37.778Z,24.86
2023-05-05T07:14:37.818Z,24.87
2023-05-05T07:15:37.885Z,24.86
2023-05-05T07:16:38.050Z,24.85
2023-05-05T07:17:38.077Z,24.85
2023-05-05T07:18:38.032Z,24.85
2023-05-05T07:19:38.104Z,24.86
2023-05-05T07:20:38.167Z,24.87
2023-05-05T07:21:38.183Z,24.89
2023-05-05T07:22:38.257Z,24.87
2023-05-05T07:23:38.338Z,24.86
2023-05-05T07:24:38.378Z,24.84
2023-05-05T07:25:38.439Z,24.85
2023-05-05T07:26:38.502Z,24.85
2023-05-05T07:27:38.589Z,24.85
2023-05-05T07:28:38.633Z,24.85
2023-05-05T07:29:38.684Z,24.85
2023-05-05T07:30:38.774Z,24.85
2023-05-05T07:31:38.875Z,24.85
2023-05-05T07:32:38.895Z,24.86
2023-05-05T07:33:39.003Z,24.86
2023-05-05T07:34:38.996Z,24.87
2023-05-05T07:35:39.069Z,24.88
2023-05-05T07:36:39.078Z,24.90
2023-05-05T07:37:39.124Z,24.90
2023-05-05T07:38:39.218Z,24.89
2023-05-05T07:39:39.234Z,24.91
2023-05-05T07:40:39.292Z,24.91
2023-05-05T07:41:39.545Z,24.91
2023-05-05T07:42:39.411Z,24.93
2023-05-05T07:43:39.712Z,24.95
2023-05-05T07:44:39.548Z,24.96
2023-05-05T07:45:39.616Z,24.97
2023-05-05T07:46:39.692Z,24.97
2023-05-05T07:47:39.753Z,24.97
2023-05-05T07:48:39.776Z,24.97
2023-05-05T07:49:39.859Z,24.97
2023-05-05T07:50:39.852Z,24.99
2023-05-05T07:51:39.924Z,24.99
2023-05-05T07:53:39.984Z,25.04
2023-05-05T07:54:39.974Z,25.07
2023-05-05T07:55:40.006Z,25.09
2023-05-05T07:56:39.979Z,25.11
2023-05-05T07:57:39.968Z,25.12
2023-05-05T07:58:39.928Z,25.15
2023-05-05T07:59:39.932Z,25.16
2023-05-05T08:00:39.935Z,25.18
2023-05-05T08:01:39.923Z,25.20
2023-05-05T08:02:40.072Z,25.21
2023-05-05T08:03:40.101Z,25.23
2023-05-05T08:04:39.918Z,25.24
2023-05-05T08:05:40.023Z,25.26
2023-05-05T08:06:39.959Z,25.29
2023-05-05T08:07:39.905Z,25.29
2023-05-05T08:08:39.869Z,25.30
2023-05-05T08:09:39.852Z,25.31
2023-05-05T08:10:39.845Z,25.32
2023-05-05T08:11:39.856Z,25.32
2023-05-05T08:12:39.964Z,25.34
2023-05-05T08:13:39.854Z,25.35
2023-05-05T08:14:39.850Z,25.37
2023-05-05T08:15:39.890Z,25.40
2023-05-05T08:16:39.835Z,25.41
2023-05-05T08:17:39.841Z,25.42
2023-05-05T08:18:39.803Z,25.42
2023-05-05T08:19:39.798Z,25.43
2023-05-05T08:20:39.782Z,25.45
2023-05-05T08:21:39.865Z,25.46
2023-05-05T08:22:39.783Z,25.46
2023-05-05T08:23:39.801Z,25.47
2023-05-05T08:24:39.786Z,25.49
2023-05-05T08:25:39.870Z,25.50
2023-05-05T08:26:39.742Z,25.52
2023-05-05T08:27:39.766Z,25.53
2023-05-05T08:28:39.752Z,25.55
2023-05-05T08:29:39.745Z,25.55
2023-05-05T08:30:39.708Z,25.54
2023-05-05T08:31:39.827Z,25.55
2023-05-05T08:32:39.810Z,25.57
2023-05-05T08:33:39.708Z,25.58
2023-05-05T08:34:39.659Z,25.58
2023-05-05T08:35:39.669Z,25.60
2023-05-05T08:36:39.713Z,25.62
2023-05-05T08:37:40.183Z,25.61
2023-05-05T08:38:39.688Z,25.59
2023-05-05T08:39:39.681Z,25.56
2023-05-05T08:40:39.687Z,25.56
2023-05-05T08:41:39.648Z,25.55
2023-05-05T08:42:39.801Z,25.55
2023-05-05T08:43:39.645Z,25.54
2023-05-05T08:44:39.669Z,25.53
2023-05-05T08:45:39.620Z,25.53
2023-05-05T08:46:39.626Z,25.52
2023-05-05T08:47:40.215Z,25.50
2023-05-05T08:48:39.593Z,25.47
2023-05-05T08:49:39.566Z,25.44
2023-05-05T08:50:39.559Z,25.40
2023-05-05T08:51:39.579Z,25.34
2023-05-05T08:52:39.640Z,25.28
2023-05-05T08:53:39.687Z,25.27
2023-05-05T08:54:39.575Z,25.25
2023-05-05T08:55:39.580Z,25.26
2023-05-05T08:56:39.546Z,25.26
2023-05-05T08:57:39.547Z,25.28
2023-05-05T08:58:39.513Z,25.29
2023-05-05T08:59:39.518Z,25.30
2023-05-05T09:00:39.535Z,25.32
2023-05-05T09:01:39.520Z,25.33
2023-05-05T09:02:39.672Z,25.34
2023-05-05T09:03:39.504Z,25.34
2023-05-05T09:04:39.480Z,25.36
2023-05-05T09:05:39.464Z,25.36
2023-05-05T09:06:39.438Z,25.36
2023-05-05T09:07:39.595Z,25.37
2023-05-05T09:08:39.466Z,25.38
2023-05-05T09:09:39.529Z,25.40
2023-05-05T09:10:39.437Z,25.41
2023-05-05T09:11:39.425Z,25.42
2023-05-05T09:12:39.495Z,25.43
2023-05-05T09:13:39.408Z,25.45
2023-05-05T09:14:39.425Z,25.46
2023-05-05T09:15:39.394Z,25.48
2023-05-05T09:16:39.433Z,25.49
2023-05-05T09:17:39.434Z,25.50
2023-05-05T09:18:39.380Z,25.50
2023-05-05T09:19:39.350Z,25.52
2023-05-05T09:20:39.361Z,25.54
2023-05-05T09:21:39.348Z,25.55
2023-05-05T09:22:39.618Z,25.56
2023-05-05T09:23:39.332Z,25.57
2023-05-05T09:24:39.341Z,25.58
2023-05-05T09:25:39.401Z,25.59
2023-05-05T09:26:39.323Z,25.60
2023-05-05T09:27:39.613Z,25.62
2023-05-05T09:28:39.368Z,25.62
2023-05-05T09:29:39.445Z,25.64
2023-05-05T09:30:39.505Z,25.65
2023-05-05T09:31:39.566Z,25.67
2023-05-05T09:32:39.671Z,25.67
2023-05-05T09:33:39.682Z,25.69
2023-05-05T09:34:39.741Z,25.71
2023-05-05T09:35:39.772Z,25.72
2023-05-05T09:36:39.871Z,25.73
2023-05-05T09:37:40.111Z,25.75
2023-05-05T09:38:39.977Z,25.76
2023-05-05T09:39:40.037Z,25.77
2023-05-05T09:40:40.100Z,25.78
2023-05-05T09:41:40.209Z,25.79
2023-05-05T09:42:40.609Z,25.78
2023-05-05T09:43:40.242Z,25.78
2023-05-05T09:44:40.314Z,25.78
2023-05-05T09:45:40.351Z,25.79
2023-05-05T09:46:40.474Z,25.80
2023-05-05T09:47:40.505Z,25.80
2023-05-05T09:48:40.533Z,25.81
2023-05-05T09:49:40.547Z,25.83
2023-05-05T09:50:40.636Z,25.85
2023-05-05T09:51:40.688Z,25.86
2023-05-05T09:52:40.717Z,25.87
2023-05-05T09:53:40.764Z,25.88
2023-05-05T09:54:40.803Z,25.88
2023-05-05T09:55:40.882Z,25.89
2023-05-05T09:56:40.924Z,25.90
2023-05-05T09:57:41.153Z,25.92
2023-05-05T09:58:41.007Z,25.94
2023-05-05T09:59:41.056Z,25.95
2023-05-05T10:00:41.090Z,25.95
2023-05-05T10:01:41.279Z,25.97
2023-05-05T10:02:41.219Z,25.98
2023-05-05T10:03:41.223Z,25.99
2023-05-05T10:04:41.319Z,26.00
2023-05-05T10:05:41.300Z,26.01
2023-05-05T10:06:41.331Z,26.02
2023-05-05T10:07:41.368Z,26.03
2023-05-05T10:08:41.444Z,26.04
2023-05-05T10:09:41.482Z,26.04
2023-05-05T10:10:41.502Z,26.05
2023-05-05T10:11:41.539Z,26.06
2023-05-05T10:12:41.572Z,26.07
2023-05-05T10:13:41.648Z,26.07
2023-05-05T10:14:41.635Z,26.10
2023-05-05T10:15:41.667Z,26.11
2023-05-05T10:16:41.710Z,26.11
2023-05-05T10:17:47.895Z,26.12
2023-05-05T10:18:42.702Z,26.13
2023-05-05T10:19:41.728Z,26.14
2023-05-05T10:20:41.698Z,26.14
2023-05-05T10:21:42.180Z,26.15
2023-05-05T10:22:41.742Z,26.15
2023-05-05T10:23:41.726Z,26.15
2023-05-05T10:24:41.758Z,26.16
2023-05-05T10:25:41.783Z,26.17
2023-05-05T10:26:41.790Z,26.18
2023-05-05T10:27:41.856Z,26.19
2023-05-05T10:28:41.842Z,26.19
2023-05-05T10:29:42.084Z,26.19
2023-05-05T10:30:41.874Z,26.19
2023-05-05T10:31:41.934Z,26.20
2023-05-05T10:33:42.032Z,26.22
2023-05-05T10:34:41.949Z,26.23
2023-05-05T10:35:41.878Z,26.23
2023-05-05T10:36:41.864Z,26.22
2023-05-05T10:37:41.864Z,26.21
2023-05-05T10:38:41.862Z,26.20
2023-05-05T10:39:41.865Z,26.19
2023-05-05T10:40:41.835Z,26.17
2023-05-05T10:41:41.860Z,26.17
2023-05-05T10:42:41.809Z,26.16
2023-05-05T10:43:41.834Z,26.17
2023-05-05T10:44:41.809Z,26.18
2023-05-05T10:45:41.988Z,26.19
2023-05-05T10:46:41.864Z,26.20
2023-05-05T10:47:41.843Z,26.22
2023-05-05T10:48:41.810Z,26.23
2023-05-05T10:49:41.766Z,26.24
2023-05-05T10:50:41.746Z,26.25
2023-05-05T10:51:41.776Z,26.26
2023-05-05T10:52:41.730Z,26.27
2023-05-05T10:53:41.736Z,26.28
2023-05-05T10:54:41.743Z,26.30
2023-05-05T10:55:41.698Z,26.30
2023-05-05T10:56:41.706Z,26.31
2023-05-05T10:57:41.743Z,26.32
2023-05-05T10:58:58.264Z,26.32
2023-05-05T10:59:42.716Z,26.33
2023-05-05T11:00:41.708Z,26.34
2023-05-05T11:01:41.738Z,26.35
2023-05-05T11:02:41.753Z,26.36
2023-05-05T11:03:41.751Z,26.36
2023-05-05T11:04:41.684Z,26.37
2023-05-05T11:05:41.677Z,26.38
2023-05-05T11:06:41.668Z,26.38
2023-05-05T11:07:41.662Z,26.39
2023-05-05T11:08:41.638Z,26.39
2023-05-05T11:09:41.624Z,26.40
2023-05-05T11:10:41.631Z,26.41
2023-05-05T11:11:41.620Z,26.41
2023-05-05T11:12:41.635Z,26.41
2023-05-05T11:13:41.612Z,26.42
2023-05-05T11:14:41.621Z,26.42
2023-05-05T11:15:41.685Z,26.44
2023-05-05T11:16:41.620Z,26.44
2023-05-05T11:17:41.717Z,26.44
2023-05-05T11:18:41.612Z,26.45
2023-05-05T11:19:41.559Z,26.45
2023-05-05T11:20:41.530Z,26.45
2023-05-05T11:21:41.559Z,26.46
2023-05-05T11:22:41.571Z,26.46
2023-05-05T11:23:41.541Z,26.47
2023-05-05T11:24:41.543Z,26.46
2023-05-05T11:25:41.497Z,26.47
2023-05-05T11:26:41.528Z,26.48
2023-05-05T11:27:41.483Z,26.47
2023-05-05T11:28:41.666Z,26.49
2023-05-05T11:29:41.495Z,26.48
2023-05-05T11:30:41.502Z,26.47
2023-05-05T11:31:41.536Z,26.46
2023-05-05T11:32:41.485Z,26.44
2023-05-05T11:33:41.735Z,26.41
2023-05-05T11:34:41.472Z,26.40
2023-05-05T11:35:41.448Z,26.38
2023-05-05T11:36:41.413Z,26.36
2023-05-05T11:37:41.428Z,26.34
2023-05-05T11:38:41.469Z,26.32
2023-05-05T11:39:41.436Z,26.31
2023-05-05T11:40:41.466Z,26.29
2023-05-05T11:41:41.468Z,26.28
2023-05-05T11:42:41.460Z,26.28
2023-05-05T11:43:41.507Z,26.26
2023-05-05T11:44:41.537Z,26.24
2023-05-05T11:45:41.523Z,26.22
2023-05-05T11:46:41.590Z,26.21
2023-05-05T11:47:41.614Z,26.20
2023-05-05T11:48:41.593Z,26.19
2023-05-05T11:49:41.674Z,26.19
2023-05-05T11:50:41.652Z,26.18
2023-05-05T11:51:41.669Z,26.18
2023-05-05T11:52:41.689Z,26.18
2023-05-05T11:53:41.697Z,26.18
2023-05-05T11:54:41.749Z,26.18
2023-05-05T11:55:41.756Z,26.18
2023-05-05T11:56:41.752Z,26.19
2023-05-05T11:57:41.807Z,26.18
2023-05-05T11:58:41.837Z,26.19
2023-05-05T11:59:41.826Z,26.19
2023-05-05T12:00:41.840Z,26.19
2023-05-05T12:01:41.882Z,26.19
2023-05-05T12:02:41.997Z,26.19
2023-05-05T12:03:42.052Z,26.18
2023-05-05T12:04:42.013Z,26.18
2023-05-05T12:05:42.080Z,26.17
2023-05-05T12:06:41.970Z,26.18
2023-05-05T12:07:42.031Z,26.17
2023-05-05T12:08:42.022Z,26.16
2023-05-05T12:09:42.020Z,26.17
2023-05-05T12:10:42.077Z,26.16
2023-05-05T12:11:42.119Z,26.16
2023-05-05T12:12:42.185Z,26.16
2023-05-05T12:13:42.143Z,26.16
2023-05-05T12:14:42.183Z,26.15
2023-05-05T12:15:42.223Z,26.14
2023-05-05T12:16:42.326Z,26.14
2023-05-05T12:17:42.303Z,26.13
2023-05-05T12:18:42.321Z,26.13
2023-05-05T12:19:42.306Z,26.12
2023-05-05T12:20:42.349Z,26.10
2023-05-05T12:21:42.337Z,26.10
2023-05-05T12:22:42.412Z,26.08
2023-05-05T12:23:42.414Z,26.08
2023-05-05T12:24:42.428Z,26.08
2023-05-05T12:25:42.435Z,26.07
2023-05-05T12:26:42.477Z,26.06
2023-05-05T12:27:42.537Z,26.08
2023-05-05T12:28:42.540Z,26.07
2023-05-05T12:29:42.561Z,26.07
2023-05-05T12:30:42.699Z,26.07
2023-05-05T12:31:42.630Z,26.06
2023-05-05T12:32:42.738Z,26.06
2023-05-05T12:33:42.703Z,26.06
2023-05-05T12:34:42.741Z,26.05
2023-05-05T12:35:42.749Z,26.06
2023-05-05T12:36:42.768Z,26.05
2023-05-05T12:37:42.805Z,26.04
2023-05-05T12:38:42.847Z,26.04
2023-05-05T12:39:42.874Z,26.04
2023-05-05T12:40:42.919Z,26.03
2023-05-05T12:41:42.951Z,26.01
2023-05-05T12:42:45.078Z,26.01
2023-05-05T12:43:42.981Z,26.01
2023-05-05T12:44:42.933Z,26.00
2023-05-05T12:45:42.980Z,26.00
2023-05-05T12:46:42.965Z,26.00
2023-05-05T12:47:43.002Z,26.01
2023-05-05T12:48:43.978Z,26.01
2023-05-05T12:49:42.961Z,26.00
2023-05-05T12:50:42.947Z,26.01
2023-05-05T12:51:42.935Z,26.00
2023-05-05T12:52:42.910Z,25.99
2023-05-05T12:53:42.978Z,25.97
2023-05-05T12:54:42.917Z,25.95
2023-05-05T12:55:42.905Z,25.94